sensor_id;sensor_type;location;lat;lon;timestamp;pressure;altitude;pressure_sealevel;temperature;humidity
55217;BME280;41086;46.736;15.666;2024-03-08T00:00:12;98799.28;;;6.22;100.00
55217;BME280;41086;46.736;15.666;2024-03-08T00:02:42;98808.72;;;6.27;100.00
55217;BME280;41086;46.736;15.666;2024-03-08T00:05:10;98806.03;;;6.28;100.00
55217;BME280;41086;46.736;15.666;2024-03-08T00:07:41;98794.16;;;6.19;100.00
55217;BME280;41086;46.736;15.666;2024-03-08T00:10:10;98806.84;;;6.30;100.00
55217;BME280;41086;46.736;15.666;2024-03-08T00:12:43;98792.22;;;6.23;100.00
55217;BME280;41086;46.736;15.666;2024-03-08T00:15:15;98803.06;;;6.36;100.00
55217;BME280;41086;46.736;15.666;2024-03-08T00:17:45;98793.38;;;6.36;100.00
55217;BME280;41086;46.736;15.666;2024-03-08T00:20:13;98797.84;;;6.34;100.00
55217;BME280;41086;46.736;15.666;2024-03-08T00:22:41;98798.16;;;6.28;100.00
55217;BME280;41086;46.736;15.666;2024-03-08T00:25:08;98778.94;;;6.26;100.00
55217;BME280;41086;46.736;15.666;2024-03-08T00:27:38;98796.56;;;6.24;100.00
55217;BME280;41086;46.736;15.666;2024-03-08T00:30:06;98785.75;;;6.11;100.00
55217;BME280;41086;46.736;15.666;2024-03-08T00:32:33;98780.50;;;6.30;100.00
55217;BME280;41086;46.736;15.666;2024-03-08T00:35:01;98785.28;;;6.41;100.00
55217;BME280;41086;46.736;15.666;2024-03-08T00:37:28;98788.59;;;6.26;100.00
55217;BME280;41086;46.736;15.666;2024-03-08T00:39:55;98782.91;;;6.16;100.00
55217;BME280;41086;46.736;15.666;2024-03-08T00:42:21;98785.41;;;6.00;100.00
55217;BME280;41086;46.736;15.666;2024-03-08T00:44:48;98789.84;;;5.77;100.00
55217;BME280;41086;46.736;15.666;2024-03-08T00:47:18;98775.44;;;5.86;100.00
55217;BME280;41086;46.736;15.666;2024-03-08T00:49:44;98765.56;;;5.91;100.00
55217;BME280;41086;46.736;15.666;2024-03-08T00:52:11;98778.28;;;5.82;100.00
55217;BME280;41086;46.736;15.666;2024-03-08T00:54:38;98779.81;;;5.67;100.00
55217;BME280;41086;46.736;15.666;2024-03-08T00:57:05;98772.19;;;5.61;100.00
55217;BME280;41086;46.736;15.666;2024-03-08T00:59:33;98768.13;;;5.33;100.00
55217;BME280;41086;46.736;15.666;2024-03-08T01:02:01;98767.44;;;5.07;100.00
55217;BME280;41086;46.736;15.666;2024-03-08T01:04:29;98761.38;;;4.85;100.00
55217;BME280;41086;46.736;15.666;2024-03-08T01:06:56;98764.13;;;4.82;100.00
55217;BME280;41086;46.736;15.666;2024-03-08T01:09:24;98758.66;;;5.29;100.00
55217;BME280;41086;46.736;15.666;2024-03-08T01:11:50;98769.28;;;5.67;100.00
55217;BME280;41086;46.736;15.666;2024-03-08T01:14:17;98762.50;;;5.82;100.00
55217;BME280;41086;46.736;15.666;2024-03-08T01:16:44;98774.09;;;5.98;100.00
55217;BME280;41086;46.736;15.666;2024-03-08T01:19:11;98767.00;;;6.00;100.00
55217;BME280;41086;46.736;15.666;2024-03-08T01:21:38;98761.84;;;5.97;100.00
55217;BME280;41086;46.736;15.666;2024-03-08T01:24:05;98769.63;;;6.00;100.00
55217;BME280;41086;46.736;15.666;2024-03-08T01:26:32;98768.63;;;6.03;100.00
55217;BME280;41086;46.736;15.666;2024-03-08T01:29:01;98769.19;;;6.09;100.00
55217;BME280;41086;46.736;15.666;2024-03-08T01:31:32;98765.75;;;6.07;100.00
55217;BME280;41086;46.736;15.666;2024-03-08T01:33:59;98770.13;;;6.08;100.00
55217;BME280;41086;46.736;15.666;2024-03-08T01:36:26;98764.91;;;6.07;100.00
55217;BME280;41086;46.736;15.666;2024-03-08T01:38:53;98761.59;;;6.03;100.00
55217;BME280;41086;46.736;15.666;2024-03-08T01:41:20;98756.19;;;6.06;100.00
55217;BME280;41086;46.736;15.666;2024-03-08T01:43:47;98751.81;;;6.05;100.00
55217;BME280;41086;46.736;15.666;2024-03-08T01:46:17;98747.84;;;5.96;100.00
55217;BME280;41086;46.736;15.666;2024-03-08T01:48:45;98751.50;;;5.92;100.00
55217;BME280;41086;46.736;15.666;2024-03-08T01:51:13;98745.59;;;5.87;100.00
55217;BME280;41086;46.736;15.666;2024-03-08T01:53:42;98738.00;;;5.81;100.00
55217;BME280;41086;46.736;15.666;2024-03-08T01:56:13;98745.75;;;5.84;100.00
55217;BME280;41086;46.736;15.666;2024-03-08T01:58:41;98723.19;;;5.60;100.00
55217;BME280;41086;46.736;15.666;2024-03-08T02:01:11;98732.06;;;5.57;100.00
55217;BME280;41086;46.736;15.666;2024-03-08T02:03:39;98729.41;;;5.57;100.00
55217;BME280;41086;46.736;15.666;2024-03-08T02:06:06;98735.19;;;5.65;100.00
55217;BME280;41086;46.736;15.666;2024-03-08T02:08:37;98727.16;;;5.68;100.00
55217;BME280;41086;46.736;15.666;2024-03-08T02:11:04;98733.34;;;5.67;100.00
55217;BME280;41086;46.736;15.666;2024-03-08T02:13:31;98730.50;;;5.72;100.00
55217;BME280;41086;46.736;15.666;2024-03-08T02:15:59;98737.34;;;5.76;100.00
55217;BME280;41086;46.736;15.666;2024-03-08T02:18:28;98728.84;;;5.69;100.00
55217;BME280;41086;46.736;15.666;2024-03-08T02:20:58;98735.25;;;5.64;100.00
55217;BME280;41086;46.736;15.666;2024-03-08T02:23:25;98727.88;;;5.32;100.00
55217;BME280;41086;46.736;15.666;2024-03-08T02:25:54;98718.34;;;5.30;100.00
55217;BME280;41086;46.736;15.666;2024-03-08T02:28:21;98730.56;;;5.51;100.00
55217;BME280;41086;46.736;15.666;2024-03-08T02:30:48;98732.75;;;5.61;100.00
55217;BME280;41086;46.736;15.666;2024-03-08T02:33:16;98715.63;;;5.52;100.00
55217;BME280;41086;46.736;15.666;2024-03-08T02:35:47;98731.97;;;5.59;100.00
55217;BME280;41086;46.736;15.666;2024-03-08T02:38:15;98724.44;;;5.30;100.00
55217;BME280;41086;46.736;15.666;2024-03-08T02:40:46;98731.53;;;5.28;100.00
55217;BME280;41086;46.736;15.666;2024-03-08T02:43:15;98728.53;;;5.17;100.00
55217;BME280;41086;46.736;15.666;2024-03-08T02:45:42;98725.94;;;4.95;100.00
55217;BME280;41086;46.736;15.666;2024-03-08T02:48:09;98728.53;;;4.75;100.00
55217;BME280;41086;46.736;15.666;2024-03-08T02:50:36;98728.00;;;4.66;100.00
55217;BME280;41086;46.736;15.666;2024-03-08T02:53:03;98724.06;;;4.77;100.00
55217;BME280;41086;46.736;15.666;2024-03-08T02:55:30;98731.19;;;4.95;100.00
55217;BME280;41086;46.736;15.666;2024-03-08T02:57:57;98719.84;;;4.95;100.00
55217;BME280;41086;46.736;15.666;2024-03-08T03:00:25;98727.16;;;5.08;100.00
55217;BME280;41086;46.736;15.666;2024-03-08T03:02:53;98728.13;;;5.06;100.00
55217;BME280;41086;46.736;15.666;2024-03-08T03:05:23;98727.59;;;4.98;100.00
55217;BME280;41086;46.736;15.666;2024-03-08T03:07:51;98734.94;;;5.10;100.00
55217;BME280;41086;46.736;15.666;2024-03-08T03:10:18;98730.22;;;5.18;100.00
55217;BME280;41086;46.736;15.666;2024-03-08T03:12:45;98730.09;;;5.21;100.00
55217;BME280;41086;46.736;15.666;2024-03-08T03:15:13;98725.75;;;5.20;100.00
55217;BME280;41086;46.736;15.666;2024-03-08T03:17:40;98725.69;;;5.22;100.00
55217;BME280;41086;46.736;15.666;2024-03-08T03:20:08;98720.59;;;5.19;100.00
55217;BME280;41086;46.736;15.666;2024-03-08T03:22:40;98710.84;;;5.21;100.00
55217;BME280;41086;46.736;15.666;2024-03-08T03:25:08;98721.88;;;5.29;100.00
55217;BME280;41086;46.736;15.666;2024-03-08T03:27:36;98713.13;;;5.28;100.00
55217;BME280;41086;46.736;15.666;2024-03-08T03:30:04;98716.22;;;5.18;100.00
55217;BME280;41086;46.736;15.666;2024-03-08T03:32:50;98709.91;;;5.01;100.00
55217;BME280;41086;46.736;15.666;2024-03-08T03:35:18;98715.72;;;4.89;100.00
55217;BME280;41086;46.736;15.666;2024-03-08T03:37:47;98716.59;;;4.68;100.00
55217;BME280;41086;46.736;15.666;2024-03-08T03:40:36;98716.91;;;4.60;100.00
55217;BME280;41086;46.736;15.666;2024-03-08T03:43:03;98714.84;;;4.46;100.00
55217;BME280;41086;46.736;15.666;2024-03-08T03:45:31;98705.91;;;4.50;100.00
55217;BME280;41086;46.736;15.666;2024-03-08T03:48:04;98716.03;;;4.59;100.00
55217;BME280;41086;46.736;15.666;2024-03-08T03:50:34;98712.50;;;4.60;100.00
55217;BME280;41086;46.736;15.666;2024-03-08T03:53:03;98699.53;;;4.56;100.00
55217;BME280;41086;46.736;15.666;2024-03-08T03:55:30;98715.31;;;4.78;100.00
55217;BME280;41086;46.736;15.666;2024-03-08T03:57:57;98722.91;;;4.84;100.00
55217;BME280;41086;46.736;15.666;2024-03-08T04:00:26;98714.25;;;4.82;100.00
55217;BME280;41086;46.736;15.666;2024-03-08T04:02:54;98726.34;;;4.86;100.00
55217;BME280;41086;46.736;15.666;2024-03-08T04:05:21;98725.34;;;4.88;100.00
55217;BME280;41086;46.736;15.666;2024-03-08T04:07:48;98724.75;;;4.82;100.00
55217;BME280;41086;46.736;15.666;2024-03-08T04:10:15;98715.00;;;4.63;100.00
55217;BME280;41086;46.736;15.666;2024-03-08T04:12:42;98718.97;;;4.30;100.00
55217;BME280;41086;46.736;15.666;2024-03-08T04:15:09;98718.28;;;4.03;100.00
55217;BME280;41086;46.736;15.666;2024-03-08T04:17:38;98710.78;;;3.70;100.00
55217;BME280;41086;46.736;15.666;2024-03-08T04:20:05;98708.41;;;3.39;100.00
55217;BME280;41086;46.736;15.666;2024-03-08T04:22:41;98725.97;;;3.60;100.00
55217;BME280;41086;46.736;15.666;2024-03-08T04:25:09;98727.63;;;3.63;100.00
55217;BME280;41086;46.736;15.666;2024-03-08T04:27:36;98709.31;;;3.38;100.00
55217;BME280;41086;46.736;15.666;2024-03-08T04:30:03;98719.25;;;3.28;100.00
55217;BME280;41086;46.736;15.666;2024-03-08T04:32:30;98718.53;;;3.24;100.00
55217;BME280;41086;46.736;15.666;2024-03-08T04:35:00;98716.13;;;3.18;100.00
55217;BME280;41086;46.736;15.666;2024-03-08T04:37:28;98716.88;;;2.97;100.00
55217;BME280;41086;46.736;15.666;2024-03-08T04:39:58;98728.19;;;2.97;100.00
55217;BME280;41086;46.736;15.666;2024-03-08T04:42:27;98731.13;;;2.88;100.00
55217;BME280;41086;46.736;15.666;2024-03-08T04:44:56;98722.13;;;2.70;100.00
55217;BME280;41086;46.736;15.666;2024-03-08T04:47:24;98724.66;;;2.45;100.00
55217;BME280;41086;46.736;15.666;2024-03-08T04:49:52;98711.78;;;2.65;100.00
55217;BME280;41086;46.736;15.666;2024-03-08T04:52:18;98724.59;;;2.75;100.00
55217;BME280;41086;46.736;15.666;2024-03-08T04:54:45;98730.34;;;2.84;100.00
55217;BME280;41086;46.736;15.666;2024-03-08T04:57:12;98727.59;;;2.89;100.00
55217;BME280;41086;46.736;15.666;2024-03-08T04:59:39;98730.59;;;3.03;100.00
55217;BME280;41086;46.736;15.666;2024-03-08T05:02:06;98730.47;;;3.06;100.00
55217;BME280;41086;46.736;15.666;2024-03-08T05:04:34;98737.13;;;3.17;100.00
55217;BME280;41086;46.736;15.666;2024-03-08T05:07:04;98742.69;;;3.32;100.00
55217;BME280;41086;46.736;15.666;2024-03-08T05:09:30;98726.22;;;3.29;100.00
55217;BME280;41086;46.736;15.666;2024-03-08T05:11:58;98732.94;;;3.36;100.00
55217;BME280;41086;46.736;15.666;2024-03-08T05:14:26;98727.59;;;3.64;100.00
55217;BME280;41086;46.736;15.666;2024-03-08T05:16:52;98741.88;;;3.79;100.00
55217;BME280;41086;46.736;15.666;2024-03-08T05:19:20;98743.19;;;3.67;100.00
55217;BME280;41086;46.736;15.666;2024-03-08T05:21:50;98745.66;;;3.47;100.00
55217;BME280;41086;46.736;15.666;2024-03-08T05:24:17;98742.38;;;3.65;100.00
55217;BME280;41086;46.736;15.666;2024-03-08T05:26:46;98744.00;;;3.69;100.00
55217;BME280;41086;46.736;15.666;2024-03-08T05:29:13;98746.88;;;3.85;100.00
55217;BME280;41086;46.736;15.666;2024-03-08T05:31:49;98745.06;;;3.87;100.00
55217;BME280;41086;46.736;15.666;2024-03-08T05:34:17;98748.28;;;3.72;100.00
55217;BME280;41086;46.736;15.666;2024-03-08T05:36:45;98752.81;;;3.42;100.00
55217;BME280;41086;46.736;15.666;2024-03-08T05:39:18;98754.34;;;3.24;100.00
55217;BME280;41086;46.736;15.666;2024-03-08T05:41:46;98742.63;;;3.09;100.00
55217;BME280;41086;46.736;15.666;2024-03-08T05:44:13;98755.78;;;3.07;100.00
55217;BME280;41086;46.736;15.666;2024-03-08T05:46:40;98751.47;;;2.80;100.00
55217;BME280;41086;46.736;15.666;2024-03-08T05:49:07;98761.88;;;2.81;100.00
55217;BME280;41086;46.736;15.666;2024-03-08T05:51:38;98753.16;;;2.81;100.00
55217;BME280;41086;46.736;15.666;2024-03-08T05:54:11;98755.53;;;2.88;100.00
55217;BME280;41086;46.736;15.666;2024-03-08T05:56:43;98744.69;;;2.74;100.00
55217;BME280;41086;46.736;15.666;2024-03-08T05:59:11;98748.16;;;2.75;100.00
55217;BME280;41086;46.736;15.666;2024-03-08T06:01:39;98757.34;;;2.86;100.00
55217;BME280;41086;46.736;15.666;2024-03-08T06:04:09;98754.47;;;2.94;100.00
55217;BME280;41086;46.736;15.666;2024-03-08T06:06:38;98753.06;;;3.10;100.00
55217;BME280;41086;46.736;15.666;2024-03-08T06:09:05;98761.34;;;3.23;100.00
55217;BME280;41086;46.736;15.666;2024-03-08T06:11:44;98748.50;;;3.41;100.00
55217;BME280;41086;46.736;15.666;2024-03-08T06:14:12;98759.72;;;3.44;100.00
55217;BME280;41086;46.736;15.666;2024-03-08T06:16:38;98745.53;;;3.26;100.00
55217;BME280;41086;46.736;15.666;2024-03-08T06:19:05;98765.25;;;3.37;100.00
55217;BME280;41086;46.736;15.666;2024-03-08T06:21:32;98775.56;;;3.16;100.00
55217;BME280;41086;46.736;15.666;2024-03-08T06:24:00;98757.34;;;3.13;100.00
55217;BME280;41086;46.736;15.666;2024-03-08T06:26:27;98782.91;;;3.31;100.00
55217;BME280;41086;46.736;15.666;2024-03-08T06:28:57;98763.53;;;3.36;100.00
55217;BME280;41086;46.736;15.666;2024-03-08T06:31:25;98767.78;;;3.40;100.00
55217;BME280;41086;46.736;15.666;2024-03-08T06:33:52;98752.47;;;3.27;100.00
55217;BME280;41086;46.736;15.666;2024-03-08T06:36:23;98789.91;;;3.56;100.00
55217;BME280;41086;46.736;15.666;2024-03-08T06:38:52;98777.63;;;4.05;100.00
55217;BME280;41086;46.736;15.666;2024-03-08T06:41:20;98767.50;;;4.18;100.00
55217;BME280;41086;46.736;15.666;2024-03-08T06:43:48;98799.75;;;4.21;100.00
55217;BME280;41086;46.736;15.666;2024-03-08T06:46:19;98788.06;;;4.07;100.00
55217;BME280;41086;46.736;15.666;2024-03-08T06:48:48;98787.91;;;3.63;100.00
55217;BME280;41086;46.736;15.666;2024-03-08T06:51:18;98771.75;;;3.50;100.00
55217;BME280;41086;46.736;15.666;2024-03-08T06:53:47;98769.09;;;3.51;100.00
55217;BME280;41086;46.736;15.666;2024-03-08T06:56:14;98749.25;;;3.44;100.00
55217;BME280;41086;46.736;15.666;2024-03-08T06:58:42;98773.38;;;3.54;100.00
55217;BME280;41086;46.736;15.666;2024-03-08T07:01:10;98726.09;;;3.57;100.00
55217;BME280;41086;46.736;15.666;2024-03-08T07:03:41;98750.00;;;3.48;100.00
55217;BME280;41086;46.736;15.666;2024-03-08T07:06:11;98775.06;;;3.80;100.00
55217;BME280;41086;46.736;15.666;2024-03-08T07:08:38;98779.28;;;4.08;100.00
55217;BME280;41086;46.736;15.666;2024-03-08T07:11:06;98751.81;;;3.94;100.00
55217;BME280;41086;46.736;15.666;2024-03-08T07:13:34;98759.31;;;4.71;100.00
55217;BME280;41086;46.736;15.666;2024-03-08T07:16:01;98793.63;;;5.31;100.00
55217;BME280;41086;46.736;15.666;2024-03-08T07:18:28;98757.41;;;5.17;100.00
55217;BME280;41086;46.736;15.666;2024-03-08T07:20:57;98740.06;;;5.33;100.00
55217;BME280;41086;46.736;15.666;2024-03-08T07:23:24;98785.81;;;5.50;100.00
55217;BME280;41086;46.736;15.666;2024-03-08T07:26:10;98781.25;;;5.13;100.00
55217;BME280;41086;46.736;15.666;2024-03-08T07:28:37;98786.78;;;4.84;100.00
55217;BME280;41086;46.736;15.666;2024-03-08T07:31:03;98783.59;;;4.98;100.00
55217;BME280;41086;46.736;15.666;2024-03-08T07:33:49;98745.25;;;4.72;100.00
55217;BME280;41086;46.736;15.666;2024-03-08T07:36:17;98791.44;;;5.20;100.00
55217;BME280;41086;46.736;15.666;2024-03-08T07:38:44;98785.41;;;5.39;100.00
55217;BME280;41086;46.736;15.666;2024-03-08T07:41:15;98799.88;;;5.49;100.00
55217;BME280;41086;46.736;15.666;2024-03-08T07:43:43;98798.81;;;5.73;100.00
55217;BME280;41086;46.736;15.666;2024-03-08T07:46:09;98779.94;;;5.64;100.00
55217;BME280;41086;46.736;15.666;2024-03-08T07:48:36;98812.50;;;6.21;100.00
55217;BME280;41086;46.736;15.666;2024-03-08T07:51:04;98806.19;;;6.25;100.00
55217;BME280;41086;46.736;15.666;2024-03-08T07:53:31;98802.81;;;6.40;100.00
55217;BME280;41086;46.736;15.666;2024-03-08T07:55:57;98793.16;;;6.60;100.00
55217;BME280;41086;46.736;15.666;2024-03-08T07:58:24;98794.88;;;6.23;100.00
55217;BME280;41086;46.736;15.666;2024-03-08T08:00:51;98782.84;;;6.36;100.00
55217;BME280;41086;46.736;15.666;2024-03-08T08:03:18;98785.22;;;6.79;100.00
55217;BME280;41086;46.736;15.666;2024-03-08T08:05:47;98801.06;;;6.96;100.00
55217;BME280;41086;46.736;15.666;2024-03-08T08:08:15;98803.88;;;6.74;100.00
55217;BME280;41086;46.736;15.666;2024-03-08T08:10:42;98790.97;;;6.87;100.00
55217;BME280;41086;46.736;15.666;2024-03-08T08:13:09;98791.41;;;7.14;100.00
55217;BME280;41086;46.736;15.666;2024-03-08T08:15:36;98790.19;;;6.85;100.00
55217;BME280;41086;46.736;15.666;2024-03-08T08:18:03;98796.91;;;6.73;100.00
55217;BME280;41086;46.736;15.666;2024-03-08T08:20:33;98799.94;;;6.83;100.00
55217;BME280;41086;46.736;15.666;2024-03-08T08:23:00;98796.44;;;6.46;100.00
55217;BME280;41086;46.736;15.666;2024-03-08T08:25:27;98792.81;;;6.11;100.00
55217;BME280;41086;46.736;15.666;2024-03-08T08:27:54;98774.50;;;6.08;100.00
55217;BME280;41086;46.736;15.666;2024-03-08T08:30:20;98789.09;;;5.75;100.00
55217;BME280;41086;46.736;15.666;2024-03-08T08:32:47;98782.28;;;5.90;100.00
55217;BME280;41086;46.736;15.666;2024-03-08T08:35:15;98773.88;;;6.03;100.00
55217;BME280;41086;46.736;15.666;2024-03-08T08:37:42;98792.22;;;6.23;100.00
55217;BME280;41086;46.736;15.666;2024-03-08T08:40:11;98778.13;;;6.05;100.00
55217;BME280;41086;46.736;15.666;2024-03-08T08:42:43;98772.03;;;6.24;100.00
55217;BME280;41086;46.736;15.666;2024-03-08T08:45:10;98771.22;;;6.40;100.00
55217;BME280;41086;46.736;15.666;2024-03-08T08:47:43;98772.25;;;6.38;100.00
55217;BME280;41086;46.736;15.666;2024-03-08T08:50:12;98783.63;;;6.38;100.00
55217;BME280;41086;46.736;15.666;2024-03-08T08:52:40;98785.44;;;6.74;100.00
55217;BME280;41086;46.736;15.666;2024-03-08T08:55:07;98773.53;;;6.84;100.00
55217;BME280;41086;46.736;15.666;2024-03-08T08:57:34;98767.34;;;6.49;100.00
55217;BME280;41086;46.736;15.666;2024-03-08T09:00:03;98776.84;;;6.71;100.00
55217;BME280;41086;46.736;15.666;2024-03-08T09:02:34;98783.75;;;6.73;100.00
55217;BME280;41086;46.736;15.666;2024-03-08T09:05:01;98771.47;;;6.55;100.00
55217;BME280;41086;46.736;15.666;2024-03-08T09:07:29;98777.56;;;6.55;100.00
55217;BME280;41086;46.736;15.666;2024-03-08T09:09:56;98777.88;;;6.85;100.00
55217;BME280;41086;46.736;15.666;2024-03-08T09:12:25;98764.72;;;7.03;100.00
55217;BME280;41086;46.736;15.666;2024-03-08T09:14:52;98787.38;;;7.07;100.00
55217;BME280;41086;46.736;15.666;2024-03-08T09:17:19;98772.38;;;6.90;100.00
55217;BME280;41086;46.736;15.666;2024-03-08T09:19:49;98778.59;;;7.24;100.00
55217;BME280;41086;46.736;15.666;2024-03-08T09:22:16;98771.63;;;6.69;100.00
55217;BME280;41086;46.736;15.666;2024-03-08T09:24:45;98776.81;;;7.24;100.00
55217;BME280;41086;46.736;15.666;2024-03-08T09:27:12;98766.16;;;7.27;100.00
55217;BME280;41086;46.736;15.666;2024-03-08T09:29:40;98772.94;;;6.97;100.00
55217;BME280;41086;46.736;15.666;2024-03-08T09:32:07;98778.34;;;6.94;100.00
55217;BME280;41086;46.736;15.666;2024-03-08T09:34:34;98778.53;;;7.25;100.00
55217;BME280;41086;46.736;15.666;2024-03-08T09:37:04;98777.13;;;7.53;97.93
55217;BME280;41086;46.736;15.666;2024-03-08T09:39:31;98785.94;;;8.20;97.58
55217;BME280;41086;46.736;15.666;2024-03-08T09:42:01;98784.53;;;8.46;92.56
55217;BME280;41086;46.736;15.666;2024-03-08T09:44:28;98790.06;;;8.57;89.52
55217;BME280;41086;46.736;15.666;2024-03-08T09:47:00;98775.50;;;8.66;88.59
55217;BME280;41086;46.736;15.666;2024-03-08T09:49:29;98759.38;;;8.55;90.30
55217;BME280;41086;46.736;15.666;2024-03-08T09:51:56;98789.75;;;8.63;88.83
55217;BME280;41086;46.736;15.666;2024-03-08T09:54:23;98775.22;;;8.71;89.11
55217;BME280;41086;46.736;15.666;2024-03-08T09:56:51;98769.00;;;8.87;88.24
55217;BME280;41086;46.736;15.666;2024-03-08T09:59:19;98779.88;;;8.97;86.70
55217;BME280;41086;46.736;15.666;2024-03-08T10:02:14;98772.19;;;9.08;87.54
55217;BME280;41086;46.736;15.666;2024-03-08T10:04:42;98778.41;;;9.23;87.98
55217;BME280;41086;46.736;15.666;2024-03-08T10:07:10;98776.22;;;9.30;86.00
55217;BME280;41086;46.736;15.666;2024-03-08T10:09:38;98771.34;;;9.38;84.53
55217;BME280;41086;46.736;15.666;2024-03-08T10:12:04;98772.25;;;9.53;84.51
55217;BME280;41086;46.736;15.666;2024-03-08T10:14:32;98772.13;;;9.54;85.04
55217;BME280;41086;46.736;15.666;2024-03-08T10:16:58;98773.22;;;9.66;85.33
55217;BME280;41086;46.736;15.666;2024-03-08T10:19:27;98771.41;;;9.67;84.94
55217;BME280;41086;46.736;15.666;2024-03-08T10:21:56;98767.53;;;9.72;82.98
55217;BME280;41086;46.736;15.666;2024-03-08T10:24:26;98770.38;;;9.84;82.42
55217;BME280;41086;46.736;15.666;2024-03-08T10:26:53;98766.31;;;9.64;81.75
55217;BME280;41086;46.736;15.666;2024-03-08T10:29:21;98768.38;;;9.59;82.75
55217;BME280;41086;46.736;15.666;2024-03-08T10:31:47;98776.50;;;9.56;82.43
55217;BME280;41086;46.736;15.666;2024-03-08T10:34:14;98772.28;;;9.07;82.02
55217;BME280;41086;46.736;15.666;2024-03-08T10:36:41;98765.91;;;9.25;84.85
55217;BME280;41086;46.736;15.666;2024-03-08T10:39:35;98778.28;;;9.55;84.90
55217;BME280;41086;46.736;15.666;2024-03-08T10:42:04;98766.00;;;9.54;83.63
55217;BME280;41086;46.736;15.666;2024-03-08T10:52:16;98768.25;;;9.60;79.59
55217;BME280;41086;46.736;15.666;2024-03-08T10:54:47;98759.00;;;9.53;78.07
55217;BME280;41086;46.736;15.666;2024-03-08T10:57:17;98769.41;;;9.70;79.71
55217;BME280;41086;46.736;15.666;2024-03-08T10:59:46;98767.94;;;9.81;79.38
55217;BME280;41086;46.736;15.666;2024-03-08T11:02:13;98770.94;;;10.03;79.44
55217;BME280;41086;46.736;15.666;2024-03-08T11:04:46;98760.06;;;10.22;78.27
55217;BME280;41086;46.736;15.666;2024-03-08T11:07:13;98753.28;;;10.32;77.12
55217;BME280;41086;46.736;15.666;2024-03-08T11:09:44;98751.94;;;10.67;75.64
55217;BME280;41086;46.736;15.666;2024-03-08T11:14:49;98748.03;;;10.59;76.33
55217;BME280;41086;46.736;15.666;2024-03-08T11:19:58;98745.44;;;11.12;72.57
55217;BME280;41086;46.736;15.666;2024-03-08T11:22:33;98718.22;;;11.36;71.66
55217;BME280;41086;46.736;15.666;2024-03-08T11:25:04;98738.19;;;11.67;68.56
55217;BME280;41086;46.736;15.666;2024-03-08T11:27:37;98735.53;;;11.67;68.52
55217;BME280;41086;46.736;15.666;2024-03-08T11:30:08;98740.53;;;11.59;67.50
55217;BME280;41086;46.736;15.666;2024-03-08T11:32:44;98733.00;;;11.65;68.30
55217;BME280;41086;46.736;15.666;2024-03-08T11:35:22;98743.06;;;11.35;65.80
55217;BME280;41086;46.736;15.666;2024-03-08T11:37:52;98733.63;;;11.43;67.57
55217;BME280;41086;46.736;15.666;2024-03-08T11:40:19;98729.06;;;11.32;66.63
55217;BME280;41086;46.736;15.666;2024-03-08T11:42:48;98721.09;;;11.32;68.67
55217;BME280;41086;46.736;15.666;2024-03-08T11:45:16;98726.91;;;11.25;68.81
55217;BME280;41086;46.736;15.666;2024-03-08T11:47:45;98721.56;;;10.99;67.86
55217;BME280;41086;46.736;15.666;2024-03-08T11:50:17;98714.19;;;10.90;68.82
55217;BME280;41086;46.736;15.666;2024-03-08T11:52:46;98709.00;;;10.89;69.52
55217;BME280;41086;46.736;15.666;2024-03-08T11:55:13;98707.44;;;10.99;69.10
55217;BME280;41086;46.736;15.666;2024-03-08T11:57:40;98702.97;;;11.65;67.98
55217;BME280;41086;46.736;15.666;2024-03-08T12:00:16;98709.63;;;11.83;65.39
55217;BME280;41086;46.736;15.666;2024-03-08T12:03:06;98693.38;;;12.13;63.62
55217;BME280;41086;46.736;15.666;2024-03-08T12:05:33;98699.06;;;12.81;63.88
55217;BME280;41086;46.736;15.666;2024-03-08T12:08:01;98703.94;;;13.22;60.91
55217;BME280;41086;46.736;15.666;2024-03-08T12:10:29;98700.84;;;13.28;60.34
55217;BME280;41086;46.736;15.666;2024-03-08T12:12:58;98695.44;;;13.30;58.83
55217;BME280;41086;46.736;15.666;2024-03-08T12:15:29;98683.91;;;12.70;58.91
55217;BME280;41086;46.736;15.666;2024-03-08T12:17:59;98682.38;;;12.31;59.28
55217;BME280;41086;46.736;15.666;2024-03-08T12:20:28;98685.00;;;11.94;60.83
55217;BME280;41086;46.736;15.666;2024-03-08T12:22:59;98675.97;;;11.71;63.65
55217;BME280;41086;46.736;15.666;2024-03-08T12:25:30;98679.69;;;11.68;62.71
55217;BME280;41086;46.736;15.666;2024-03-08T12:28:07;98674.38;;;11.30;62.88
55217;BME280;41086;46.736;15.666;2024-03-08T12:30:46;98663.97;;;11.40;63.21
55217;BME280;41086;46.736;15.666;2024-03-08T12:33:13;98662.19;;;11.40;65.60
55217;BME280;41086;46.736;15.666;2024-03-08T12:35:40;98649.88;;;11.39;65.04
55217;BME280;41086;46.736;15.666;2024-03-08T12:38:08;98658.13;;;11.47;64.03
55217;BME280;41086;46.736;15.666;2024-03-08T12:40:35;98658.25;;;11.46;65.56
55217;BME280;41086;46.736;15.666;2024-03-08T12:43:07;98652.84;;;11.35;63.57
55217;BME280;41086;46.736;15.666;2024-03-08T12:45:34;98656.53;;;11.06;65.07
55217;BME280;41086;46.736;15.666;2024-03-08T12:48:01;98656.25;;;10.71;65.43
55217;BME280;41086;46.736;15.666;2024-03-08T12:50:30;98655.06;;;10.35;66.92
55217;BME280;41086;46.736;15.666;2024-03-08T12:52:56;98651.94;;;10.14;68.68
55217;BME280;41086;46.736;15.666;2024-03-08T12:55:23;98652.94;;;9.99;68.78
55217;BME280;41086;46.736;15.666;2024-03-08T12:57:50;98646.22;;;10.08;69.32
55217;BME280;41086;46.736;15.666;2024-03-08T13:00:20;98644.38;;;10.23;69.03
55217;BME280;41086;46.736;15.666;2024-03-08T13:02:46;98647.50;;;10.56;69.92
55217;BME280;41086;46.736;15.666;2024-03-08T13:05:14;98640.38;;;10.84;66.96
55217;BME280;41086;46.736;15.666;2024-03-08T13:07:41;98643.44;;;10.91;65.66
55217;BME280;41086;46.736;15.666;2024-03-08T13:10:13;98637.59;;;10.85;66.38